aviador You're here:

KLDJ Decoded Metar

in _UNIDENTIFIED
Report Time2017-05-28 23:55:00
UTC Time2017-05-29 00:07:06
Flight Rules vfr VFR
Wind140° at 05 kt
W.Decomp.*RWY 09: 2.3 kt HW 4.5 kt RCW
W.Rank140° ranks 14
Current wind is below 140° avg. (6.5)
Visibility9999 m
Phenomena:N/A
Clouds:Overcast 120 Hf
Expected CloudBase > 2,400 ft AGL from Temp-Dew spread
Ceiling12,000 ft
Temp17°C (ISA +2)
Dew Point11°C (68% RH)
AAT15.5°C
QNH1014 hPa
Density Alt407 ft
Elevation23 ft
Report Wrong Elevation
Raw Report
KLDJ 282355Z AUTO 14005KT 10SM OVC120 17/11 A2994 RMK AO2
T01670111 10225 20167=

Extra information for KLDJ:More info

Metar Taf Metar & Taf Last 4 Metars F.Rules Stats Wind Profile Meteogram Temp Stats Metar ALERT Operation Metar Decoded Social comments